createdAt,value
2022-10-11T00:01:55.641Z,14.77
2022-10-11T00:04:30.476Z,6.20
2022-10-11T00:07:05.350Z,10.07
2022-10-11T00:09:40.371Z,7.80
2022-10-11T00:12:15.221Z,10.20
2022-10-11T00:14:50.061Z,12.87
2022-10-11T00:17:24.970Z,13.63
2022-10-11T00:19:59.987Z,10.07
2022-10-11T00:22:37.361Z,7.53
2022-10-11T00:25:13.113Z,9.77
2022-10-11T00:27:47.970Z,8.80
2022-10-11T00:30:22.817Z,15.43
2022-10-11T00:32:58.185Z,8.00
2022-10-11T00:35:33.030Z,11.00
2022-10-11T00:38:08.042Z,9.93
2022-10-11T00:40:43.268Z,12.50
2022-10-11T00:43:22.946Z,10.30
2022-10-11T00:45:57.702Z,12.30
2022-10-11T00:48:55.406Z,9.53
2022-10-11T00:51:44.339Z,10.97
2022-10-11T00:54:24.841Z,9.90
2022-10-11T00:57:05.766Z,10.93
2022-10-11T00:59:47.242Z,9.63
2022-10-11T01:02:24.168Z,12.47
2022-10-11T01:05:25.175Z,11.30
2022-10-11T01:07:54.575Z,7.23
2022-10-11T01:10:29.604Z,12.40
2022-10-11T01:14:11.041Z,12.33
2022-10-11T01:17:12.509Z,13.60
2022-10-11T01:20:43.278Z,14.27
2022-10-11T01:23:42.763Z,12.00
2022-10-11T01:26:52.305Z,14.67
2022-10-11T01:30:24.696Z,10.13
2022-10-11T01:33:45.096Z,13.90
2022-10-11T01:36:31.956Z,10.90
2022-10-11T01:39:18.816Z,14.00
2022-10-11T01:41:56.413Z,16.60
2022-10-11T01:44:34.007Z,15.47
2022-10-11T01:47:08.942Z,17.57
2022-10-11T01:49:44.047Z,14.07
2022-10-11T01:52:18.957Z,19.10
2022-10-11T01:55:17.588Z,20.60
2022-10-11T01:58:22.933Z,17.93
2022-10-11T02:01:33.721Z,28.83
2022-10-11T02:04:31.546Z,22.57
2022-10-11T02:08:00.468Z,24.77
2022-10-11T02:10:46.789Z,21.37
2022-10-11T02:13:41.742Z,21.33
2022-10-11T02:16:21.928Z,25.10
2022-10-11T02:18:58.172Z,27.43
2022-10-11T02:21:36.649Z,26.70
2022-10-11T02:24:21.744Z,27.73
2022-10-11T02:26:59.251Z,39.10
2022-10-11T02:29:38.261Z,34.43
2022-10-11T02:32:15.817Z,30.17
2022-10-11T02:34:55.388Z,37.03
2022-10-11T02:37:42.992Z,28.20
2022-10-11T02:40:32.203Z,35.70
2022-10-11T02:43:36.598Z,32.33
2022-10-11T02:46:12.589Z,34.67
2022-10-11T02:48:48.075Z,41.80
2022-10-11T02:51:23.017Z,34.63
2022-10-11T02:53:58.107Z,33.90
2022-10-11T02:56:33.028Z,41.07
2022-10-11T02:59:07.896Z,44.23
2022-10-11T03:01:42.913Z,35.33
2022-10-11T03:04:17.868Z,35.07
2022-10-11T03:06:52.736Z,47.17
2022-10-11T03:09:27.617Z,38.73
2022-10-11T03:12:02.550Z,43.40
2022-10-11T03:14:37.521Z,48.23
2022-10-11T03:17:35.164Z,45.87
2022-10-11T03:20:08.163Z,49.43
2022-10-11T03:22:43.093Z,44.23
2022-10-11T03:25:18.349Z,38.47
2022-10-11T03:27:53.387Z,38.10
2022-10-11T03:30:28.441Z,45.63
2022-10-11T03:33:03.470Z,41.30
2022-10-11T03:35:38.412Z,66.47
2022-10-11T03:38:15.794Z,66.63
2022-10-11T03:40:50.818Z,48.10
2022-10-11T03:43:26.213Z,62.93
2022-10-11T03:46:01.133Z,63.33
2022-10-11T03:48:36.197Z,55.93
2022-10-11T03:51:13.057Z,54.07
2022-10-11T03:53:47.997Z,56.00
2022-10-11T03:56:22.915Z,48.70
2022-10-11T03:58:57.786Z,59.10
2022-10-11T04:01:37.586Z,54.20
2022-10-11T04:04:12.584Z,57.57
2022-10-11T04:06:47.509Z,42.00
2022-10-11T04:09:22.631Z,56.33
2022-10-11T04:11:58.207Z,49.67
2022-10-11T04:14:33.164Z,68.90
2022-10-11T04:17:08.063Z,59.67
2022-10-11T04:19:43.144Z,59.87
2022-10-11T04:22:18.045Z,61.50
2022-10-11T04:24:53.105Z,63.47
2022-10-11T04:27:29.425Z,44.57
2022-10-11T04:30:05.446Z,55.77
2022-10-11T04:32:40.405Z,54.00
2022-10-11T04:35:15.486Z,59.93
2022-10-11T04:37:50.434Z,59.70
2022-10-11T04:40:25.330Z,53.73
2022-10-11T04:43:00.556Z,78.27
2022-10-11T04:45:35.507Z,57.20
2022-10-11T04:48:10.817Z,48.53
2022-10-11T04:50:45.974Z,53.77
2022-10-11T04:53:24.613Z,55.20
2022-10-11T04:56:11.089Z,67.97
2022-10-11T04:58:49.320Z,59.70
2022-10-11T05:01:24.402Z,52.27
2022-10-11T05:03:59.500Z,62.87
2022-10-11T05:06:34.467Z,56.40
2022-10-11T05:09:09.448Z,54.60
2022-10-11T05:11:44.375Z,56.07
2022-10-11T05:14:19.323Z,60.03
2022-10-11T05:16:54.348Z,57.03
2022-10-11T05:19:29.525Z,49.07
2022-10-11T05:22:04.511Z,48.43
2022-10-11T05:24:39.451Z,48.73
2022-10-11T05:27:14.388Z,45.60
2022-10-11T05:29:49.379Z,59.77
2022-10-11T05:32:27.745Z,57.13
2022-10-11T05:35:03.143Z,58.70
2022-10-11T05:37:38.183Z,50.57
2022-10-11T05:40:13.264Z,60.13
2022-10-11T05:42:48.206Z,59.37
2022-10-11T05:45:23.209Z,50.97
2022-10-11T05:47:58.199Z,50.83
2022-10-11T05:50:33.427Z,65.27
2022-10-11T05:53:08.722Z,71.37
2022-10-11T05:55:45.076Z,52.90
2022-10-11T05:58:21.087Z,48.47
2022-10-11T06:00:57.006Z,62.20
2022-10-11T06:03:32.161Z,36.77
2022-10-11T06:06:07.318Z,48.00
2022-10-11T06:08:42.814Z,54.47
2022-10-11T06:11:27.468Z,56.73
2022-10-11T06:14:02.452Z,50.70
2022-10-11T06:16:38.020Z,58.47
2022-10-11T06:19:13.057Z,44.90
2022-10-11T06:21:48.437Z,43.50
2022-10-11T06:24:23.351Z,61.13
2022-10-11T06:26:58.329Z,44.07
2022-10-11T06:29:33.350Z,51.53
2022-10-11T06:32:08.263Z,53.93
2022-10-11T06:34:43.829Z,53.80
2022-10-11T06:37:18.992Z,47.47
2022-10-11T06:39:53.901Z,49.27
2022-10-11T06:42:28.812Z,42.80
2022-10-11T06:45:04.036Z,50.20
2022-10-11T06:47:38.997Z,60.60
2022-10-11T06:50:14.021Z,58.13
2022-10-11T06:52:49.005Z,59.30
2022-10-11T06:55:24.124Z,54.80
2022-10-11T06:57:59.179Z,49.47
2022-10-11T07:00:34.218Z,41.70
2022-10-11T07:03:09.181Z,43.90
2022-10-11T07:05:44.141Z,71.90
2022-10-11T07:08:19.079Z,52.50
2022-10-11T07:10:58.649Z,48.27
2022-10-11T07:13:33.676Z,59.70
2022-10-11T07:16:12.501Z,53.87
2022-10-11T07:18:48.601Z,49.73
2022-10-11T07:21:23.614Z,43.70
2022-10-11T07:23:59.394Z,49.40
2022-10-11T07:26:38.212Z,52.10
2022-10-11T07:29:13.941Z,59.53
2022-10-11T07:31:48.931Z,52.27
2022-10-11T07:34:23.912Z,51.33
2022-10-11T07:36:59.158Z,67.77
2022-10-11T07:39:34.326Z,51.53
2022-10-11T07:42:09.997Z,50.77
2022-10-11T07:44:45.029Z,59.07
2022-10-11T07:47:19.998Z,48.80
2022-10-11T07:49:54.988Z,60.23
2022-10-11T07:52:29.909Z,46.70
2022-10-11T07:55:05.879Z,48.27
2022-10-11T07:57:40.817Z,55.87
2022-10-11T08:00:16.173Z,56.57
2022-10-11T08:02:51.097Z,37.50
2022-10-11T08:05:26.005Z,70.03
2022-10-11T08:08:01.195Z,68.87
2022-10-11T08:10:40.139Z,51.30
2022-10-11T08:13:15.157Z,56.33
2022-10-11T08:15:50.934Z,65.50
2022-10-11T08:18:26.074Z,68.23
2022-10-11T08:21:09.785Z,60.30
2022-10-11T08:23:45.252Z,66.00
2022-10-11T08:26:20.513Z,53.03
2022-10-11T08:28:55.568Z,53.53
2022-10-11T08:31:31.422Z,52.00
2022-10-11T08:34:06.456Z,59.43
2022-10-11T08:36:41.468Z,62.70
2022-10-11T08:39:16.792Z,47.80
2022-10-11T08:42:00.234Z,57.00
2022-10-11T08:45:09.580Z,43.93
2022-10-11T08:47:44.687Z,59.83
2022-10-11T08:50:22.772Z,50.80
2022-10-11T08:53:39.969Z,49.87
2022-10-11T08:56:16.616Z,57.77
2022-10-11T08:59:12.726Z,59.17
2022-10-11T09:01:54.951Z,47.27
2022-10-11T09:04:32.275Z,49.80
2022-10-11T09:07:56.451Z,44.80
2022-10-11T09:10:59.526Z,42.57
2022-10-11T09:14:11.285Z,44.90
2022-10-11T09:17:09.570Z,42.70
2022-10-11T09:20:31.216Z,49.70
2022-10-11T09:23:45.753Z,38.10
2022-10-11T09:26:32.177Z,41.63
2022-10-11T09:29:49.807Z,36.00
2022-10-11T09:32:32.523Z,34.40
2022-10-11T09:35:14.725Z,26.83
2022-10-11T09:38:07.719Z,24.53
2022-10-11T09:40:51.396Z,24.07
2022-10-11T09:43:26.346Z,19.30
2022-10-11T09:46:01.317Z,20.37
2022-10-11T09:48:41.711Z,23.33
2022-10-11T09:51:24.442Z,19.63
2022-10-11T09:54:03.382Z,20.60
2022-10-11T09:56:44.294Z,23.97
2022-10-11T09:59:34.300Z,23.00
2022-10-11T10:02:23.454Z,22.73
2022-10-11T10:05:14.281Z,15.87
2022-10-11T10:08:10.411Z,21.00
2022-10-11T10:11:04.193Z,17.00
2022-10-11T10:13:56.724Z,16.90
2022-10-11T10:16:34.146Z,16.80
2022-10-11T10:19:25.240Z,17.03
2022-10-11T10:22:00.248Z,15.93
2022-10-11T10:24:39.996Z,15.47
2022-10-11T10:27:18.945Z,14.70
2022-10-11T10:30:19.437Z,14.90
2022-10-11T10:33:06.343Z,15.90
2022-10-11T10:36:15.699Z,12.67
2022-10-11T10:39:08.329Z,12.80
2022-10-11T10:41:43.335Z,14.70
2022-10-11T10:44:18.355Z,19.13
2022-10-11T10:47:15.503Z,12.07
2022-10-11T10:50:08.033Z,16.30
2022-10-11T10:53:00.049Z,14.80
2022-10-11T10:55:38.825Z,12.87
2022-10-11T10:58:29.953Z,12.33
2022-10-11T11:01:25.611Z,13.70
2022-10-11T11:04:18.413Z,15.50
2022-10-11T11:07:23.077Z,11.20
2022-10-11T11:10:15.722Z,13.93
2022-10-11T11:13:54.236Z,16.27
2022-10-11T11:16:31.904Z,13.23
2022-10-11T11:19:53.435Z,14.93
2022-10-11T11:22:40.909Z,11.30
2022-10-11T11:25:50.958Z,10.43
2022-10-11T11:29:02.447Z,11.90
2022-10-11T11:31:46.869Z,9.67
2022-10-11T11:34:37.899Z,11.70
2022-10-11T11:37:35.323Z,11.63
2022-10-11T11:40:19.177Z,13.77
2022-10-11T11:43:18.380Z,9.63
2022-10-11T11:46:13.115Z,11.70
2022-10-11T11:48:51.250Z,9.60
2022-10-11T11:51:35.483Z,13.70
2022-10-11T11:54:22.319Z,12.70
2022-10-11T11:57:24.143Z,14.20
2022-10-11T12:00:22.210Z,11.50
2022-10-11T12:03:36.870Z,10.17
2022-10-11T12:06:20.466Z,10.23
2022-10-11T12:09:17.123Z,12.50
2022-10-11T12:12:07.207Z,10.70
2022-10-11T12:14:42.756Z,9.67
2022-10-11T12:17:22.744Z,11.87
2022-10-11T12:20:33.653Z,11.23
2022-10-11T12:23:41.790Z,11.43
2022-10-11T12:26:35.594Z,10.67
2022-10-11T12:29:43.574Z,10.30
2022-10-11T12:32:28.217Z,12.17
2022-10-11T12:35:31.238Z,11.03
2022-10-11T12:38:37.198Z,12.67
2022-10-11T12:41:16.860Z,12.90
2022-10-11T12:43:52.025Z,9.23
2022-10-11T12:46:30.343Z,10.83
2022-10-11T12:49:27.153Z,12.50
2022-10-11T12:52:35.316Z,9.10
2022-10-11T12:55:46.683Z,9.10
2022-10-11T12:58:46.436Z,9.33
2022-10-11T13:01:25.517Z,9.53
2022-10-11T13:04:08.114Z,9.80
2022-10-11T13:06:56.809Z,9.80
2022-10-11T13:09:36.860Z,10.00
2022-10-11T13:12:17.967Z,9.70
2022-10-11T13:15:09.703Z,10.50
2022-10-11T13:17:45.210Z,17.77
2022-10-11T13:20:25.766Z,10.60
2022-10-11T13:23:00.819Z,10.57
2022-10-11T13:25:38.076Z,10.00
2022-10-11T13:28:14.708Z,10.90
2022-10-11T13:30:56.860Z,9.23
2022-10-11T13:33:35.874Z,10.63
2022-10-11T13:36:20.612Z,8.50
2022-10-11T13:39:00.797Z,8.33
2022-10-11T13:41:35.778Z,9.03
2022-10-11T13:44:10.803Z,10.00
2022-10-11T13:46:46.372Z,8.60
2022-10-11T13:49:38.455Z,12.37
2022-10-11T13:52:22.404Z,8.43
2022-10-11T13:55:11.555Z,11.10
2022-10-11T13:57:48.499Z,9.10
2022-10-11T14:00:28.820Z,11.23
2022-10-11T14:03:19.807Z,11.20
2022-10-11T14:05:58.092Z,14.73
2022-10-11T14:08:59.603Z,12.87
2022-10-11T14:11:39.554Z,10.63
2022-10-11T14:14:33.036Z,9.93
2022-10-11T14:17:15.507Z,8.13
2022-10-11T14:20:16.752Z,14.90
2022-10-11T14:22:53.457Z,8.47
2022-10-11T14:25:28.607Z,8.87
2022-10-11T14:28:05.714Z,9.10
2022-10-11T14:30:42.958Z,9.50
2022-10-11T14:33:18.008Z,8.97
2022-10-11T14:35:52.941Z,8.83
2022-10-11T14:38:27.913Z,8.10
2022-10-11T14:41:02.904Z,8.47
2022-10-11T14:43:37.875Z,7.93
2022-10-11T14:46:25.433Z,9.40
2022-10-11T14:49:00.416Z,7.93
2022-10-11T14:51:36.149Z,13.73
2022-10-11T14:54:11.699Z,8.30
2022-10-11T14:56:46.899Z,7.77
2022-10-11T14:59:25.544Z,8.07
2022-10-11T15:02:01.594Z,11.27
2022-10-11T15:04:36.733Z,11.07
2022-10-11T15:07:12.879Z,9.13
2022-10-11T15:09:47.838Z,12.67
2022-10-11T15:12:22.778Z,13.10
2022-10-11T15:14:57.745Z,10.83
2022-10-11T15:17:32.747Z,9.03
2022-10-11T15:20:23.443Z,8.33
2022-10-11T15:23:00.335Z,9.03
2022-10-11T15:25:35.954Z,10.30
2022-10-11T15:28:29.744Z,10.63
2022-10-11T15:31:04.877Z,11.20
2022-10-11T15:33:40.667Z,9.30
2022-10-11T15:36:22.430Z,9.73
2022-10-11T15:38:57.365Z,8.73
2022-10-11T15:41:32.337Z,8.90
2022-10-11T15:44:07.351Z,8.57
2022-10-11T15:46:43.359Z,9.50
2022-10-11T15:49:18.557Z,10.80
2022-10-11T15:51:53.455Z,13.13
2022-10-11T15:54:28.382Z,10.30
2022-10-11T15:57:03.552Z,9.30
2022-10-11T15:59:38.689Z,8.57
2022-10-11T16:02:15.193Z,13.83
2022-10-11T16:04:50.189Z,10.53
2022-10-11T16:07:25.176Z,10.70
2022-10-11T16:10:00.218Z,9.00
2022-10-11T16:12:35.475Z,10.07
2022-10-11T16:15:13.652Z,9.27
2022-10-11T16:17:48.963Z,10.60
2022-10-11T16:20:25.991Z,10.00
2022-10-11T16:23:01.063Z,9.67
2022-10-11T16:25:36.652Z,11.67
2022-10-11T16:28:11.934Z,12.57
2022-10-11T16:30:46.957Z,13.63
2022-10-11T16:33:22.082Z,11.50
2022-10-11T16:36:17.242Z,9.47
2022-10-11T16:38:52.155Z,11.97
2022-10-11T16:41:27.187Z,9.30
2022-10-11T16:44:03.477Z,9.00
2022-10-11T16:46:38.492Z,9.17
2022-10-11T16:49:22.517Z,9.60
2022-10-11T16:52:03.896Z,10.40
2022-10-11T16:54:41.958Z,13.37
2022-10-11T16:57:18.882Z,8.70
2022-10-11T16:59:53.866Z,12.73
2022-10-11T17:02:32.246Z,11.60
2022-10-11T17:05:07.822Z,10.80
2022-10-11T17:07:43.581Z,10.30
2022-10-11T17:10:18.562Z,10.73
2022-10-11T17:12:55.298Z,11.10
2022-10-11T17:15:31.316Z,15.07
2022-10-11T17:18:07.326Z,11.90
2022-10-11T17:20:42.572Z,14.00
2022-10-11T17:23:17.570Z,10.87
2022-10-11T17:25:52.480Z,13.30
2022-10-11T17:28:28.431Z,10.43
2022-10-11T17:31:05.287Z,11.53
2022-10-11T17:33:40.623Z,15.83
2022-10-11T17:36:24.238Z,11.20
2022-10-11T17:39:08.031Z,13.03
2022-10-11T17:41:44.071Z,11.53
2022-10-11T17:44:19.330Z,11.60
2022-10-11T17:46:54.337Z,11.80
2022-10-11T17:49:29.547Z,12.47
2022-10-11T17:52:04.459Z,11.70
2022-10-11T17:54:40.402Z,13.93
2022-10-11T17:57:15.368Z,14.00
2022-10-11T17:59:50.280Z,11.60
2022-10-11T18:02:25.595Z,12.73
2022-10-11T18:05:00.539Z,13.43
2022-10-11T18:07:36.070Z,13.30
2022-10-11T18:10:11.048Z,18.13
2022-10-11T18:12:46.864Z,16.80
2022-10-11T18:15:22.443Z,15.80
2022-10-11T18:17:59.409Z,13.90
2022-10-11T18:20:34.386Z,14.70
2022-10-11T18:23:09.332Z,18.30
2022-10-11T18:25:46.712Z,19.27
2022-10-11T18:28:21.806Z,16.10
2022-10-11T18:30:58.977Z,17.93
2022-10-11T18:33:36.810Z,21.50
2022-10-11T18:36:15.174Z,16.70
2022-10-11T18:38:55.405Z,14.70
2022-10-11T18:41:32.178Z,16.97
2022-10-11T18:44:09.104Z,18.13
2022-10-11T18:46:44.894Z,15.80
2022-10-11T18:49:19.842Z,18.80
2022-10-11T18:51:54.754Z,17.83
2022-10-11T18:54:29.924Z,17.53
2022-10-11T18:57:05.004Z,15.13
2022-10-11T18:59:39.923Z,15.87
2022-10-11T19:02:15.368Z,14.40
2022-10-11T19:04:52.661Z,14.10
2022-10-11T19:07:28.772Z,14.83
2022-10-11T19:10:04.349Z,18.60
2022-10-11T19:12:39.443Z,19.40
2022-10-11T19:15:16.560Z,14.37
2022-10-11T19:17:52.582Z,15.43
2022-10-11T19:20:27.570Z,17.80
2022-10-11T19:23:02.534Z,14.00
2022-10-11T19:25:37.695Z,15.60
2022-10-11T19:28:15.698Z,13.30
2022-10-11T19:30:51.025Z,13.13
2022-10-11T19:33:26.076Z,11.87
2022-10-11T19:36:04.437Z,12.60
2022-10-11T19:38:39.537Z,13.67
2022-10-11T19:41:17.927Z,14.83
2022-10-11T19:43:54.153Z,14.00
2022-10-11T19:46:50.593Z,12.40
2022-10-11T19:49:25.834Z,15.37
2022-10-11T19:52:01.269Z,16.37
2022-10-11T19:54:36.215Z,17.10
2022-10-11T19:57:11.178Z,16.23
2022-10-11T19:59:46.274Z,15.87
2022-10-11T20:02:21.209Z,12.80
2022-10-11T20:04:56.185Z,15.70
2022-10-11T20:07:31.349Z,15.03
2022-10-11T20:10:06.645Z,15.67
2022-10-11T20:12:45.810Z,14.67
2022-10-11T20:15:21.001Z,15.37
2022-10-11T20:17:55.927Z,16.97
2022-10-11T20:20:32.302Z,18.60
2022-10-11T20:23:07.393Z,17.53
2022-10-11T20:25:42.398Z,14.30
2022-10-11T20:28:17.433Z,15.40
2022-10-11T20:30:52.576Z,14.77
2022-10-11T20:33:30.069Z,16.90
2022-10-11T20:36:11.332Z,16.50
2022-10-11T20:38:48.483Z,14.90
2022-10-11T20:41:36.941Z,14.40
2022-10-11T20:44:13.175Z,16.00
2022-10-11T20:46:48.427Z,18.50
2022-10-11T20:49:23.375Z,14.80
2022-10-11T20:51:58.254Z,16.93
2022-10-11T20:54:34.739Z,16.10
2022-10-11T20:57:09.795Z,14.30
2022-10-11T20:59:45.251Z,14.07
2022-10-11T21:02:20.151Z,15.03
2022-10-11T21:04:55.121Z,17.23
2022-10-11T21:07:30.013Z,14.83
2022-10-11T21:10:05.293Z,13.87
2022-10-11T21:12:41.283Z,14.73
2022-10-11T21:15:16.345Z,18.80
2022-10-11T21:17:52.083Z,14.73
2022-10-11T21:20:27.749Z,17.90
2022-10-11T21:23:02.776Z,15.53
2022-10-11T21:25:38.129Z,13.17
2022-10-11T21:28:13.177Z,13.43
2022-10-11T21:30:48.108Z,13.63
2022-10-11T21:33:23.130Z,14.43
2022-10-11T21:35:58.276Z,14.70
2022-10-11T21:38:34.459Z,13.27
2022-10-11T21:41:15.323Z,15.13
2022-10-11T21:43:50.395Z,17.83
2022-10-11T21:46:54.183Z,12.67
2022-10-11T21:49:25.076Z,15.40
2022-10-11T21:51:59.986Z,15.30
2022-10-11T21:54:35.099Z,14.37
2022-10-11T21:57:10.139Z,14.93
2022-10-11T21:59:45.115Z,14.70
2022-10-11T22:02:20.239Z,13.37
2022-10-11T22:04:55.155Z,12.73
2022-10-11T22:07:30.173Z,12.27
2022-10-11T22:10:05.563Z,15.83
2022-10-11T22:12:40.561Z,16.50
2022-10-11T22:15:15.595Z,18.23
2022-10-11T22:17:50.517Z,13.20
2022-10-11T22:20:25.468Z,13.30
2022-10-11T22:23:00.408Z,14.70
2022-10-11T22:25:37.444Z,11.00
2022-10-11T22:28:12.805Z,14.23
2022-10-11T22:30:48.327Z,17.73
2022-10-11T22:33:23.431Z,11.90
2022-10-11T22:36:01.649Z,13.77
2022-10-11T22:38:38.954Z,13.30
2022-10-11T22:41:14.060Z,14.37
2022-10-11T22:43:49.246Z,14.83
2022-10-11T22:46:24.210Z,14.00
2022-10-11T22:48:59.200Z,13.27
2022-10-11T22:51:34.149Z,20.73
2022-10-11T22:54:09.041Z,13.50
2022-10-11T22:56:43.949Z,15.63
2022-10-11T22:59:18.853Z,13.83
2022-10-11T23:01:53.744Z,11.80
2022-10-11T23:04:28.609Z,14.10
2022-10-11T23:07:05.111Z,14.30
2022-10-11T23:09:40.174Z,11.63
2022-10-11T23:12:15.146Z,15.83
2022-10-11T23:14:50.011Z,12.43
2022-10-11T23:17:24.951Z,19.27
2022-10-11T23:19:59.891Z,15.33
2022-10-11T23:22:34.817Z,14.60
2022-10-11T23:25:09.874Z,16.43
2022-10-11T23:27:44.749Z,14.10
2022-10-11T23:30:19.639Z,15.30
2022-10-11T23:32:54.607Z,13.87
2022-10-11T23:35:29.519Z,15.07
2022-10-11T23:38:04.366Z,16.40
2022-10-11T23:40:39.257Z,15.27
2022-10-11T23:43:14.168Z,16.60
2022-10-11T23:45:49.072Z,20.00
2022-10-11T23:48:23.975Z,16.37
2022-10-11T23:50:58.845Z,14.73
2022-10-11T23:53:34.445Z,17.93
2022-10-11T23:56:11.523Z,15.17
2022-10-11T23:58:46.454Z,14.90
